sensor_id;sensor_type;location;lat;lon;timestamp;pressure;altitude;pressure_sealevel;temperature;humidity
59043;BME280;44826;51.596;5.624;2023-01-25T00:01:50;103663.09;;;0.40;80.51
59043;BME280;44826;51.596;5.624;2023-01-25T00:04:15;103663.09;;;0.40;80.44
59043;BME280;44826;51.596;5.624;2023-01-25T00:06:40;103657.19;;;0.41;80.35
59043;BME280;44826;51.596;5.624;2023-01-25T00:09:06;103658.69;;;0.38;80.66
59043;BME280;44826;51.596;5.624;2023-01-25T00:11:31;103660.19;;;0.34;80.29
59043;BME280;44826;51.596;5.624;2023-01-25T00:13:56;103657.63;;;0.34;80.19
59043;BME280;44826;51.596;5.624;2023-01-25T00:16:22;103661.91;;;0.35;80.53
59043;BME280;44826;51.596;5.624;2023-01-25T00:18:48;103662.81;;;0.36;80.85
59043;BME280;44826;51.596;5.624;2023-01-25T00:21:23;103657.69;;;0.36;80.04
59043;BME280;44826;51.596;5.624;2023-01-25T00:23:49;103655.06;;;0.34;80.05
59043;BME280;44826;51.596;5.624;2023-01-25T00:26:14;103656.63;;;0.32;80.32
59043;BME280;44826;51.596;5.624;2023-01-25T00:28:40;103653.88;;;0.29;80.38
59043;BME280;44826;51.596;5.624;2023-01-25T00:31:06;103651.19;;;0.27;80.20
59043;BME280;44826;51.596;5.624;2023-01-25T00:33:38;103648.63;;;0.27;80.65
59043;BME280;44826;51.596;5.624;2023-01-25T00:38:59;103651.13;;;0.26;79.78
59043;BME280;44826;51.596;5.624;2023-01-25T00:41:25;103653.75;;;0.27;80.43
59043;BME280;44826;51.596;5.624;2023-01-25T00:43:50;103639.88;;;0.24;80.47
59043;BME280;44826;51.596;5.624;2023-01-25T00:46:17;103640.00;;;0.25;80.43
59043;BME280;44826;51.596;5.624;2023-01-25T00:48:42;103646.06;;;0.27;81.08
59043;BME280;44826;51.596;5.624;2023-01-25T00:51:08;103636.75;;;0.28;80.69
59043;BME280;44826;51.596;5.624;2023-01-25T00:53:33;103636.75;;;0.28;80.48
59043;BME280;44826;51.596;5.624;2023-01-25T00:55:58;103642.66;;;0.27;80.32
59043;BME280;44826;51.596;5.624;2023-01-25T00:58:24;103642.66;;;0.27;80.65
59043;BME280;44826;51.596;5.624;2023-01-25T01:00:52;103635.75;;;0.26;80.66
59043;BME280;44826;51.596;5.624;2023-01-25T01:03:17;103645.13;;;0.25;80.80
59043;BME280;44826;51.596;5.624;2023-01-25T01:05:42;103634.78;;;0.24;80.70
59043;BME280;44826;51.596;5.624;2023-01-25T01:08:08;103631.22;;;0.22;80.90
59043;BME280;44826;51.596;5.624;2023-01-25T01:10:33;103625.13;;;0.20;80.32
59043;BME280;44826;51.596;5.624;2023-01-25T01:12:58;103626.69;;;0.18;80.49
59043;BME280;44826;51.596;5.624;2023-01-25T01:15:23;103634.09;;;0.13;80.22
59043;BME280;44826;51.596;5.624;2023-01-25T01:17:49;103632.25;;;0.10;80.62
59043;BME280;44826;51.596;5.624;2023-01-25T01:20:14;103635.78;;;0.12;80.45
59043;BME280;44826;51.596;5.624;2023-01-25T01:22:39;103638.44;;;0.14;80.89
59043;BME280;44826;51.596;5.624;2023-01-25T01:25:05;103626.53;;;0.14;80.84
59043;BME280;44826;51.596;5.624;2023-01-25T01:27:31;103638.53;;;0.16;80.56
59043;BME280;44826;51.596;5.624;2023-01-25T01:29:56;103628.31;;;0.16;81.07
59043;BME280;44826;51.596;5.624;2023-01-25T01:32:21;103626.69;;;0.18;80.87
59043;BME280;44826;51.596;5.624;2023-01-25T01:34:46;103630.25;;;0.20;80.86
59043;BME280;44826;51.596;5.624;2023-01-25T01:37:12;103626.88;;;0.21;80.58
59043;BME280;44826;51.596;5.624;2023-01-25T01:39:37;103633.00;;;0.23;81.13
59043;BME280;44826;51.596;5.624;2023-01-25T01:42:03;103629.66;;;0.24;80.30
59043;BME280;44826;51.596;5.624;2023-01-25T01:44:49;103624.66;;;0.25;80.62
59043;BME280;44826;51.596;5.624;2023-01-25T01:47:21;103621.25;;;0.26;80.80
59043;BME280;44826;51.596;5.624;2023-01-25T01:50:00;103634.97;;;0.27;80.85
59043;BME280;44826;51.596;5.624;2023-01-25T01:52:30;103624.66;;;0.25;80.99
59043;BME280;44826;51.596;5.624;2023-01-25T01:55:03;103623.75;;;0.25;80.89
59043;BME280;44826;51.596;5.624;2023-01-25T01:57:45;103632.41;;;0.27;81.22
59043;BME280;44826;51.596;5.624;2023-01-25T02:00:13;103635.03;;;0.28;80.88
59043;BME280;44826;51.596;5.624;2023-01-25T02:02:40;103624.53;;;0.24;81.10
59043;BME280;44826;51.596;5.624;2023-01-25T02:05:09;103624.31;;;0.21;80.59
59043;BME280;44826;51.596;5.624;2023-01-25T02:07:37;103628.59;;;0.20;80.36
59043;BME280;44826;51.596;5.624;2023-01-25T02:10:05;103631.81;;;0.18;79.86
59043;BME280;44826;51.596;5.624;2023-01-25T02:12:30;103629.38;;;0.19;80.06
59043;BME280;44826;51.596;5.624;2023-01-25T02:14:56;103634.50;;;0.19;80.37
59043;BME280;44826;51.596;5.624;2023-01-25T02:17:29;103625.13;;;0.20;80.83
59043;BME280;44826;51.596;5.624;2023-01-25T02:20:06;103617.44;;;0.20;80.89
59043;BME280;44826;51.596;5.624;2023-01-25T02:22:46;103625.22;;;0.21;81.03
59043;BME280;44826;51.596;5.624;2023-01-25T02:25:16;103623.34;;;0.19;80.60
59043;BME280;44826;51.596;5.624;2023-01-25T02:27:55;103617.34;;;0.18;80.50
59043;BME280;44826;51.596;5.624;2023-01-25T02:30:23;103618.06;;;0.16;79.95
59043;BME280;44826;51.596;5.624;2023-01-25T02:32:48;103613.72;;;0.14;80.43
59043;BME280;44826;51.596;5.624;2023-01-25T02:35:21;103598.25;;;0.13;79.94
59043;BME280;44826;51.596;5.624;2023-01-25T02:37:47;103607.63;;;0.12;80.00
59043;BME280;44826;51.596;5.624;2023-01-25T02:40:13;103593.06;;;0.11;79.86
59043;BME280;44826;51.596;5.624;2023-01-25T02:42:41;103587.94;;;0.11;80.55
59043;BME280;44826;51.596;5.624;2023-01-25T02:45:08;103588.00;;;0.13;80.31
59043;BME280;44826;51.596;5.624;2023-01-25T02:47:37;103596.59;;;0.13;80.75
59043;BME280;44826;51.596;5.624;2023-01-25T02:50:02;103591.47;;;0.13;80.44
59043;BME280;44826;51.596;5.624;2023-01-25T02:52:27;103587.16;;;0.12;80.76
59043;BME280;44826;51.596;5.624;2023-01-25T02:54:53;103584.59;;;0.12;80.82
59043;BME280;44826;51.596;5.624;2023-01-25T02:57:18;103595.63;;;0.11;80.54
59043;BME280;44826;51.596;5.624;2023-01-25T02:59:43;103592.06;;;0.09;81.26
59043;BME280;44826;51.596;5.624;2023-01-25T03:02:08;103588.72;;;0.10;81.06
59043;BME280;44826;51.596;5.624;2023-01-25T03:04:34;103590.38;;;0.10;80.92
59043;BME280;44826;51.596;5.624;2023-01-25T03:06:59;103586.94;;;0.09;80.78
59043;BME280;44826;51.596;5.624;2023-01-25T03:09:24;103592.16;;;0.11;81.17
59043;BME280;44826;51.596;5.624;2023-01-25T03:11:49;103587.81;;;0.10;81.11
59043;BME280;44826;51.596;5.624;2023-01-25T03:14:15;103582.63;;;0.08;80.94
59043;BME280;44826;51.596;5.624;2023-01-25T03:16:40;103574.94;;;0.08;81.10
59043;BME280;44826;51.596;5.624;2023-01-25T03:19:05;103578.38;;;0.09;80.46
59043;BME280;44826;51.596;5.624;2023-01-25T03:21:31;103578.47;;;0.10;80.59
59043;BME280;44826;51.596;5.624;2023-01-25T03:23:59;103576.91;;;0.12;80.85
59043;BME280;44826;51.596;5.624;2023-01-25T03:26:26;103578.47;;;0.10;81.01
59043;BME280;44826;51.596;5.624;2023-01-25T03:28:52;103567.34;;;0.10;80.16
59043;BME280;44826;51.596;5.624;2023-01-25T03:31:17;103565.75;;;0.12;80.39
59043;BME280;44826;51.596;5.624;2023-01-25T03:33:43;103557.09;;;0.10;80.58
59043;BME280;44826;51.596;5.624;2023-01-25T03:36:09;103551.31;;;0.12;80.91
59043;BME280;44826;51.596;5.624;2023-01-25T03:38:34;103555.44;;;0.10;80.68
59043;BME280;44826;51.596;5.624;2023-01-25T03:41:01;103556.81;;;0.05;80.40
59043;BME280;44826;51.596;5.624;2023-01-25T03:43:27;103547.19;;;0.01;80.58
59043;BME280;44826;51.596;5.624;2023-01-25T03:45:57;103551.34;;;-0.01;80.65
59043;BME280;44826;51.596;5.624;2023-01-25T03:48:23;103541.91;;;-0.02;80.20
59043;BME280;44826;51.596;5.624;2023-01-25T03:50:57;103549.56;;;-0.02;80.32
59043;BME280;44826;51.596;5.624;2023-01-25T03:53:24;103549.56;;;-0.02;80.45
59043;BME280;44826;51.596;5.624;2023-01-25T03:55:55;103547.88;;;-0.02;80.70
59043;BME280;44826;51.596;5.624;2023-01-25T03:58:20;103554.78;;;-0.01;80.94
59043;BME280;44826;51.596;5.624;2023-01-25T04:00:46;103557.25;;;-0.02;80.59
59043;BME280;44826;51.596;5.624;2023-01-25T04:03:11;103556.34;;;-0.03;81.16
59043;BME280;44826;51.596;5.624;2023-01-25T04:05:36;103547.03;;;-0.02;81.12
59043;BME280;44826;51.596;5.624;2023-01-25T04:08:02;103554.78;;;-0.01;80.41
59043;BME280;44826;51.596;5.624;2023-01-25T04:10:27;103553.13;;;0.00;80.99
59043;BME280;44826;51.596;5.624;2023-01-25T04:12:52;103543.66;;;-0.01;80.78
59043;BME280;44826;51.596;5.624;2023-01-25T04:15:17;103542.75;;;-0.02;80.50
59043;BME280;44826;51.596;5.624;2023-01-25T04:17:43;103535.00;;;-0.03;80.43
59043;BME280;44826;51.596;5.624;2023-01-25T04:20:09;103533.13;;;-0.06;80.71
59043;BME280;44826;51.596;5.624;2023-01-25T04:22:34;103531.28;;;-0.08;80.38
59043;BME280;44826;51.596;5.624;2023-01-25T04:24:59;103526.94;;;-0.09;80.15
59043;BME280;44826;51.596;5.624;2023-01-25T04:27:25;103531.19;;;-0.10;80.08
59043;BME280;44826;51.596;5.624;2023-01-25T04:29:50;103532.84;;;-0.10;80.46
59043;BME280;44826;51.596;5.624;2023-01-25T04:32:15;103526.94;;;-0.09;80.41
59043;BME280;44826;51.596;5.624;2023-01-25T04:34:40;103527.84;;;-0.09;80.44
59043;BME280;44826;51.596;5.624;2023-01-25T04:37:06;103529.69;;;-0.06;80.57
59043;BME280;44826;51.596;5.624;2023-01-25T04:39:31;103527.91;;;-0.07;80.88
59043;BME280;44826;51.596;5.624;2023-01-25T04:41:56;103527.91;;;-0.07;80.56
59043;BME280;44826;51.596;5.624;2023-01-25T04:44:21;103527.84;;;-0.09;80.56
59043;BME280;44826;51.596;5.624;2023-01-25T04:46:47;103520.06;;;-0.10;79.85
59043;BME280;44826;51.596;5.624;2023-01-25T04:49:13;103525.97;;;-0.11;80.06
59043;BME280;44826;51.596;5.624;2023-01-25T04:51:38;103513.94;;;-0.12;80.69
59043;BME280;44826;51.596;5.624;2023-01-25T04:54:04;103512.28;;;-0.12;80.62
59043;BME280;44826;51.596;5.624;2023-01-25T04:56:29;103510.59;;;-0.11;80.87
59043;BME280;44826;51.596;5.624;2023-01-25T04:58:54;103515.72;;;-0.11;80.91
59043;BME280;44826;51.596;5.624;2023-01-25T05:01:19;103510.53;;;-0.13;80.58
59043;BME280;44826;51.596;5.624;2023-01-25T05:03:45;103509.63;;;-0.13;81.09
59043;BME280;44826;51.596;5.624;2023-01-25T05:06:10;103502.72;;;-0.14;80.34
59043;BME280;44826;51.596;5.624;2023-01-25T05:08:35;103498.41;;;-0.16;80.42
59043;BME280;44826;51.596;5.624;2023-01-25T05:11:00;103500.16;;;-0.14;80.88
59043;BME280;44826;51.596;5.624;2023-01-25T05:13:26;103500.16;;;-0.14;80.57
59043;BME280;44826;51.596;5.624;2023-01-25T05:15:51;103499.19;;;-0.17;80.79
59043;BME280;44826;51.596;5.624;2023-01-25T05:18:16;103496.63;;;-0.17;80.84
59043;BME280;44826;51.596;5.624;2023-01-25T05:20:41;103505.13;;;-0.18;80.76
59043;BME280;44826;51.596;5.624;2023-01-25T05:23:07;103500.88;;;-0.17;80.77
59043;BME280;44826;51.596;5.624;2023-01-25T05:25:32;103492.41;;;-0.16;80.52
59043;BME280;44826;51.596;5.624;2023-01-25T05:28:16;103493.47;;;-0.12;80.30
59043;BME280;44826;51.596;5.624;2023-01-25T05:30:41;103493.47;;;-0.12;79.71
59043;BME280;44826;51.596;5.624;2023-01-25T05:33:06;103492.69;;;-0.11;80.30
59043;BME280;44826;51.596;5.624;2023-01-25T05:35:31;103487.50;;;-0.13;79.86
59043;BME280;44826;51.596;5.624;2023-01-25T05:37:57;103492.69;;;-0.11;80.28
59043;BME280;44826;51.596;5.624;2023-01-25T05:40:24;103492.81;;;-0.10;80.72
59043;BME280;44826;51.596;5.624;2023-01-25T05:42:56;103497.03;;;-0.10;80.49
59043;BME280;44826;51.596;5.624;2023-01-25T05:45:22;103487.69;;;-0.10;80.64
59043;BME280;44826;51.596;5.624;2023-01-25T05:47:57;103493.47;;;-0.12;80.58
59043;BME280;44826;51.596;5.624;2023-01-25T05:50:24;103489.94;;;-0.14;80.50
59043;BME280;44826;51.596;5.624;2023-01-25T05:52:49;103488.94;;;-0.17;80.68
59043;BME280;44826;51.596;5.624;2023-01-25T05:55:15;103484.81;;;-0.14;80.81
59043;BME280;44826;51.596;5.624;2023-01-25T05:57:40;103485.72;;;-0.14;81.00
59043;BME280;44826;51.596;5.624;2023-01-25T06:00:06;103494.19;;;-0.15;80.98
59043;BME280;44826;51.596;5.624;2023-01-25T06:02:32;103488.94;;;-0.17;80.63
59043;BME280;44826;51.596;5.624;2023-01-25T06:04:57;103489.94;;;-0.14;80.93
59043;BME280;44826;51.596;5.624;2023-01-25T06:07:23;103486.59;;;-0.13;80.92
59043;BME280;44826;51.596;5.624;2023-01-25T06:09:48;103487.38;;;-0.14;81.04
59043;BME280;44826;51.596;5.624;2023-01-25T06:12:14;103490.72;;;-0.16;80.53
59043;BME280;44826;51.596;5.624;2023-01-25T06:14:40;103490.66;;;-0.17;81.24
59043;BME280;44826;51.596;5.624;2023-01-25T06:17:05;103489.78;;;-0.18;81.35
59043;BME280;44826;51.596;5.624;2023-01-25T06:19:31;103487.22;;;-0.18;81.43
59043;BME280;44826;51.596;5.624;2023-01-25T06:21:56;103489.78;;;-0.18;nan
59043;BME280;44826;51.596;5.624;2023-01-25T06:24:21;103491.50;;;-0.17;81.17
59043;BME280;44826;51.596;5.624;2023-01-25T06:26:46;103488.16;;;-0.16;81.34
59043;BME280;44826;51.596;5.624;2023-01-25T06:29:12;103488.16;;;-0.16;81.39
59043;BME280;44826;51.596;5.624;2023-01-25T06:31:37;103483.84;;;-0.17;81.33
59043;BME280;44826;51.596;5.624;2023-01-25T06:34:02;103482.09;;;-0.18;80.67
59043;BME280;44826;51.596;5.624;2023-01-25T06:36:31;103476.00;;;-0.20;80.67
59043;BME280;44826;51.596;5.624;2023-01-25T06:38:56;103476.09;;;-0.18;80.74
59043;BME280;44826;51.596;5.624;2023-01-25T06:41:22;103476.09;;;-0.18;80.48
59043;BME280;44826;51.596;5.624;2023-01-25T06:43:50;103481.13;;;-0.20;80.59
59043;BME280;44826;51.596;5.624;2023-01-25T06:46:17;103487.22;;;-0.18;80.38
59043;BME280;44826;51.596;5.624;2023-01-25T06:48:43;103485.44;;;-0.19;80.56
59043;BME280;44826;51.596;5.624;2023-01-25T06:51:10;103481.13;;;-0.20;80.78
59043;BME280;44826;51.596;5.624;2023-01-25T06:53:38;103482.78;;;-0.20;80.35
59043;BME280;44826;51.596;5.624;2023-01-25T06:58:31;103482.69;;;-0.22;79.77
59043;BME280;44826;51.596;5.624;2023-01-25T07:01:05;103476.41;;;-0.27;80.77
59043;BME280;44826;51.596;5.624;2023-01-25T07:03:31;103477.63;;;-0.35;80.55
59043;BME280;44826;51.596;5.624;2023-01-25T07:06:02;103479.28;;;-0.36;80.70
59043;BME280;44826;51.596;5.624;2023-01-25T07:08:28;103477.63;;;-0.35;80.11
59043;BME280;44826;51.596;5.624;2023-01-25T07:10:58;103473.28;;;-0.36;80.90
59043;BME280;44826;51.596;5.624;2023-01-25T07:13:25;103472.50;;;-0.35;80.05
59043;BME280;44826;51.596;5.624;2023-01-25T07:15:54;103478.47;;;-0.35;80.53
59043;BME280;44826;51.596;5.624;2023-01-25T07:18:20;103477.63;;;-0.35;81.03
59043;BME280;44826;51.596;5.624;2023-01-25T07:20:45;103479.34;;;-0.34;80.79
59043;BME280;44826;51.596;5.624;2023-01-25T07:23:11;103483.69;;;-0.33;80.29
59043;BME280;44826;51.596;5.624;2023-01-25T07:25:36;103481.13;;;-0.33;80.10
59043;BME280;44826;51.596;5.624;2023-01-25T07:28:01;103485.44;;;-0.32;79.74
59043;BME280;44826;51.596;5.624;2023-01-25T07:30:26;103473.66;;;-0.30;80.78
59043;BME280;44826;51.596;5.624;2023-01-25T07:32:52;103475.34;;;-0.31;80.12
59043;BME280;44826;51.596;5.624;2023-01-25T07:35:17;103475.34;;;-0.31;79.41
59043;BME280;44826;51.596;5.624;2023-01-25T07:37:42;103478.00;;;-0.42;79.82
59043;BME280;44826;51.596;5.624;2023-01-25T07:40:08;103464.66;;;-0.52;79.42
59043;BME280;44826;51.596;5.624;2023-01-25T07:42:33;103463.69;;;-0.54;80.43
59043;BME280;44826;51.596;5.624;2023-01-25T07:44:59;103455.22;;;-0.53;80.27
59043;BME280;44826;51.596;5.624;2023-01-25T07:47:24;103462.97;;;-0.51;80.41
59043;BME280;44826;51.596;5.624;2023-01-25T07:49:49;103459.72;;;-0.49;80.50
59043;BME280;44826;51.596;5.624;2023-01-25T07:52:14;103455.56;;;-0.47;80.58
59043;BME280;44826;51.596;5.624;2023-01-25T07:54:40;103464.16;;;-0.46;80.31
59043;BME280;44826;51.596;5.624;2023-01-25T07:57:05;103461.59;;;-0.46;79.66
59043;BME280;44826;51.596;5.624;2023-01-25T07:59:30;103470.13;;;-0.46;80.38
59043;BME280;44826;51.596;5.624;2023-01-25T08:01:56;103473.47;;;-0.47;79.79
59043;BME280;44826;51.596;5.624;2023-01-25T08:04:21;103470.06;;;-0.47;79.96
59043;BME280;44826;51.596;5.624;2023-01-25T08:06:46;103471.63;;;-0.49;80.41
59043;BME280;44826;51.596;5.624;2023-01-25T08:09:15;103466.50;;;-0.49;80.60
59043;BME280;44826;51.596;5.624;2023-01-25T08:11:44;103457.06;;;-0.50;80.27
59043;BME280;44826;51.596;5.624;2023-01-25T08:14:09;103452.94;;;-0.48;80.25
59043;BME280;44826;51.596;5.624;2023-01-25T08:16:35;103456.47;;;-0.46;79.64
59043;BME280;44826;51.596;5.624;2023-01-25T08:19:01;103454.78;;;-0.46;80.09
59043;BME280;44826;51.596;5.624;2023-01-25T08:21:27;103455.69;;;-0.45;80.51
59043;BME280;44826;51.596;5.624;2023-01-25T08:23:58;103460.03;;;-0.44;80.68
59043;BME280;44826;51.596;5.624;2023-01-25T08:26:24;103460.69;;;-0.47;80.44
59043;BME280;44826;51.596;5.624;2023-01-25T08:28:50;103448.81;;;-0.46;80.23
59043;BME280;44826;51.596;5.624;2023-01-25T08:31:20;103443.00;;;-0.43;80.97
59043;BME280;44826;51.596;5.624;2023-01-25T08:33:46;103444.69;;;-0.44;80.13
59043;BME280;44826;51.596;5.624;2023-01-25T08:36:15;103445.53;;;-0.43;80.33
59043;BME280;44826;51.596;5.624;2023-01-25T08:38:42;103438.66;;;-0.44;80.95
59043;BME280;44826;51.596;5.624;2023-01-25T08:41:10;103446.44;;;-0.43;80.58
59043;BME280;44826;51.596;5.624;2023-01-25T08:43:37;103442.13;;;-0.44;80.35
59043;BME280;44826;51.596;5.624;2023-01-25T08:46:03;103443.78;;;-0.44;79.94
59043;BME280;44826;51.596;5.624;2023-01-25T08:48:28;103447.13;;;-0.46;80.95
59043;BME280;44826;51.596;5.624;2023-01-25T08:50:53;103451.38;;;-0.46;80.88
59043;BME280;44826;51.596;5.624;2023-01-25T08:53:19;103447.25;;;-0.44;80.71
59043;BME280;44826;51.596;5.624;2023-01-25T08:55:44;103445.75;;;-0.40;80.05
59043;BME280;44826;51.596;5.624;2023-01-25T08:58:13;103439.91;;;-0.38;79.82
59043;BME280;44826;51.596;5.624;2023-01-25T09:00:40;103438.25;;;-0.37;80.17
59043;BME280;44826;51.596;5.624;2023-01-25T09:03:07;103433.22;;;-0.36;79.22
59043;BME280;44826;51.596;5.624;2023-01-25T09:05:33;103430.59;;;-0.37;80.53
59043;BME280;44826;51.596;5.624;2023-01-25T09:07:59;103425.09;;;-0.43;79.89
59043;BME280;44826;51.596;5.624;2023-01-25T09:10:24;103419.59;;;-0.50;79.50
59043;BME280;44826;51.596;5.624;2023-01-25T09:12:49;103427.25;;;-0.50;79.47
59043;BME280;44826;51.596;5.624;2023-01-25T09:15:15;103418.91;;;-0.47;80.23
59043;BME280;44826;51.596;5.624;2023-01-25T09:17:40;103422.44;;;-0.45;80.53
59043;BME280;44826;51.596;5.624;2023-01-25T09:20:06;103424.22;;;-0.44;80.33
59043;BME280;44826;51.596;5.624;2023-01-25T09:22:31;103419.97;;;-0.43;80.08
59043;BME280;44826;51.596;5.624;2023-01-25T09:24:57;103419.97;;;-0.43;80.02
59043;BME280;44826;51.596;5.624;2023-01-25T09:27:22;103419.97;;;-0.43;79.94
59043;BME280;44826;51.596;5.624;2023-01-25T09:29:47;103419.19;;;-0.42;80.06
59043;BME280;44826;51.596;5.624;2023-01-25T09:32:13;103415.91;;;-0.40;79.78
59043;BME280;44826;51.596;5.624;2023-01-25T09:34:38;103416.81;;;-0.39;80.26
59043;BME280;44826;51.596;5.624;2023-01-25T09:37:03;103417.81;;;-0.37;80.36
59043;BME280;44826;51.596;5.624;2023-01-25T09:39:28;103416.22;;;-0.35;79.74
59043;BME280;44826;51.596;5.624;2023-01-25T09:50:21;103405.75;;;-0.25;79.91
59043;BME280;44826;51.596;5.624;2023-01-25T09:55:16;103406.53;;;-0.26;80.02
59043;BME280;44826;51.596;5.624;2023-01-25T09:57:44;103411.56;;;-0.27;79.36
59043;BME280;44826;51.596;5.624;2023-01-25T10:05:47;103412.72;;;-0.22;79.63
59043;BME280;44826;51.596;5.624;2023-01-25T10:08:22;103407.72;;;-0.21;79.31
59043;BME280;44826;51.596;5.624;2023-01-25T10:10:54;103405.16;;;-0.21;79.95
59043;BME280;44826;51.596;5.624;2023-01-25T10:13:23;103399.25;;;-0.20;79.40
59043;BME280;44826;51.596;5.624;2023-01-25T10:16:01;103401.00;;;-0.19;79.51
59043;BME280;44826;51.596;5.624;2023-01-25T10:18:51;103400.03;;;-0.21;78.60
59043;BME280;44826;51.596;5.624;2023-01-25T10:21:33;103389.34;;;-0.28;78.80
59043;BME280;44826;51.596;5.624;2023-01-25T10:24:21;103396.03;;;-0.31;79.01
59043;BME280;44826;51.596;5.624;2023-01-25T10:27:01;103389.22;;;-0.30;79.96
59043;BME280;44826;51.596;5.624;2023-01-25T10:29:30;103387.66;;;-0.28;80.08
59043;BME280;44826;51.596;5.624;2023-01-25T10:32:08;103393.75;;;-0.26;79.30
59043;BME280;44826;51.596;5.624;2023-01-25T10:34:40;103386.25;;;-0.23;79.26
59043;BME280;44826;51.596;5.624;2023-01-25T10:37:17;103378.78;;;-0.20;79.48
59043;BME280;44826;51.596;5.624;2023-01-25T10:40:03;103371.25;;;-0.17;79.75
59043;BME280;44826;51.596;5.624;2023-01-25T10:42:35;103365.34;;;-0.16;79.70
59043;BME280;44826;51.596;5.624;2023-01-25T10:45:09;103355.13;;;-0.16;79.59
59043;BME280;44826;51.596;5.624;2023-01-25T10:47:35;103351.78;;;-0.14;79.38
59043;BME280;44826;51.596;5.624;2023-01-25T10:50:02;103346.84;;;-0.11;79.37
59043;BME280;44826;51.596;5.624;2023-01-25T10:52:31;103342.00;;;-0.07;79.83
59043;BME280;44826;51.596;5.624;2023-01-25T10:57:37;103330.09;;;-0.06;79.55
59043;BME280;44826;51.596;5.624;2023-01-25T11:00:06;103325.16;;;-0.03;79.10
59043;BME280;44826;51.596;5.624;2023-01-25T11:05:34;103304.88;;;0.00;78.98
59043;BME280;44826;51.596;5.624;2023-01-25T11:08:22;103298.94;;;0.01;79.22
59043;BME280;44826;51.596;5.624;2023-01-25T11:10:48;103301.34;;;-0.02;79.01
59043;BME280;44826;51.596;5.624;2023-01-25T11:18:17;103290.47;;;0.02;78.71
59043;BME280;44826;51.596;5.624;2023-01-25T11:20:43;103288.69;;;0.01;79.20
59043;BME280;44826;51.596;5.624;2023-01-25T11:23:22;103280.16;;;0.01;79.51
59043;BME280;44826;51.596;5.624;2023-01-25T11:25:49;103279.28;;;0.00;79.73
59043;BME280;44826;51.596;5.624;2023-01-25T11:28:22;103269.97;;;0.02;79.32
59043;BME280;44826;51.596;5.624;2023-01-25T11:30:49;103267.41;;;0.02;78.67
59043;BME280;44826;51.596;5.624;2023-01-25T11:33:17;103249.63;;;0.04;79.52
59043;BME280;44826;51.596;5.624;2023-01-25T11:38:26;103238.47;;;0.03;79.35
59043;BME280;44826;51.596;5.624;2023-01-25T11:41:03;103237.69;;;0.04;79.13
59043;BME280;44826;51.596;5.624;2023-01-25T11:44:00;103235.31;;;0.07;79.01
59043;BME280;44826;51.596;5.624;2023-01-25T11:46:39;103220.41;;;0.00;77.83
59043;BME280;44826;51.596;5.624;2023-01-25T11:57:56;103208.56;;;0.02;78.75
59043;BME280;44826;51.596;5.624;2023-01-25T12:00:54;103201.69;;;0.01;79.23
59043;BME280;44826;51.596;5.624;2023-01-25T12:08:55;103172.66;;;0.01;78.59
59043;BME280;44826;51.596;5.624;2023-01-25T12:11:50;103164.91;;;-0.01;78.74
59043;BME280;44826;51.596;5.624;2023-01-25T12:17:25;103155.47;;;-0.02;78.77
59043;BME280;44826;51.596;5.624;2023-01-25T12:20:25;103150.19;;;-0.05;78.84
59043;BME280;44826;51.596;5.624;2023-01-25T12:26:01;103132.00;;;-0.10;79.07
59043;BME280;44826;51.596;5.624;2023-01-25T12:31:22;103118.16;;;-0.13;79.39
59043;BME280;44826;51.596;5.624;2023-01-25T12:33:55;103119.75;;;-0.16;78.66
59043;BME280;44826;51.596;5.624;2023-01-25T12:36:30;103109.00;;;-0.10;79.70
59043;BME280;44826;51.596;5.624;2023-01-25T12:39:01;103105.47;;;-0.12;78.53
59043;BME280;44826;51.596;5.624;2023-01-25T12:41:47;103097.13;;;-0.08;78.84
59043;BME280;44826;51.596;5.624;2023-01-25T12:44:23;103086.75;;;-0.11;78.63
59043;BME280;44826;51.596;5.624;2023-01-25T12:49:41;103086.03;;;-0.08;78.23
59043;BME280;44826;51.596;5.624;2023-01-25T12:52:20;103068.91;;;-0.09;78.78
59043;BME280;44826;51.596;5.624;2023-01-25T12:54:48;103069.72;;;-0.10;78.57
59043;BME280;44826;51.596;5.624;2023-01-25T13:03:34;103059.03;;;-0.03;78.77
59043;BME280;44826;51.596;5.624;2023-01-25T13:12:03;103045.25;;;-0.05;78.56
59043;BME280;44826;51.596;5.624;2023-01-25T13:14:34;103045.25;;;-0.05;77.61
59043;BME280;44826;51.596;5.624;2023-01-25T13:19:51;103042.53;;;-0.08;77.48
59043;BME280;44826;51.596;5.624;2023-01-25T13:25:26;103034.84;;;-0.08;78.31
59043;BME280;44826;51.596;5.624;2023-01-25T13:28:45;103037.59;;;-0.05;78.13
59043;BME280;44826;51.596;5.624;2023-01-25T13:31:03;103030.47;;;-0.11;77.54
59043;BME280;44826;51.596;5.624;2023-01-25T13:33:33;103019.25;;;-0.13;77.60
59043;BME280;44826;51.596;5.624;2023-01-25T13:42:16;103008.41;;;-0.09;78.01
59043;BME280;44826;51.596;5.624;2023-01-25T13:44:46;103003.28;;;-0.09;78.06
59043;BME280;44826;51.596;5.624;2023-01-25T13:47:14;103005.00;;;-0.08;78.14
59043;BME280;44826;51.596;5.624;2023-01-25T13:50:01;103003.28;;;-0.09;78.05
59043;BME280;44826;51.596;5.624;2023-01-25T13:52:29;103008.41;;;-0.09;78.70
59043;BME280;44826;51.596;5.624;2023-01-25T13:54:57;102998.06;;;-0.10;78.50
59043;BME280;44826;51.596;5.624;2023-01-25T13:57:28;102988.63;;;-0.11;78.50
59043;BME280;44826;51.596;5.624;2023-01-25T14:00:14;102983.50;;;-0.11;78.52
59043;BME280;44826;51.596;5.624;2023-01-25T14:02:41;102973.91;;;-0.16;77.41
59043;BME280;44826;51.596;5.624;2023-01-25T14:05:17;102974.72;;;-0.17;77.57
59043;BME280;44826;51.596;5.624;2023-01-25T14:07:45;102978.09;;;-0.18;77.83
59043;BME280;44826;51.596;5.624;2023-01-25T14:10:17;102981.59;;;-0.16;77.91
59043;BME280;44826;51.596;5.624;2023-01-25T14:12:47;102980.88;;;-0.13;78.05
59043;BME280;44826;51.596;5.624;2023-01-25T14:15:30;102981.59;;;-0.16;77.91
59043;BME280;44826;51.596;5.624;2023-01-25T14:18:29;102987.44;;;-0.18;78.06
59043;BME280;44826;51.596;5.624;2023-01-25T14:21:21;102991.50;;;-0.22;78.14
59043;BME280;44826;51.596;5.624;2023-01-25T14:23:47;102994.69;;;-0.26;78.44
59043;BME280;44826;51.596;5.624;2023-01-25T14:26:24;102992.84;;;-0.28;78.34